sensor_id;sensor_type;location;lat;lon;timestamp;P1;durP1;ratioP1;P2;durP2;ratioP2
24617;SDS011;12762;51.730;5.356;2023-07-22T00:01:10;15.63;;;8.33;;
24617;SDS011;12762;51.730;5.356;2023-07-22T00:03:36;13.20;;;8.17;;
24617;SDS011;12762;51.730;5.356;2023-07-22T00:06:07;15.07;;;8.53;;
24617;SDS011;12762;51.730;5.356;2023-07-22T00:08:38;15.60;;;9.33;;
24617;SDS011;12762;51.730;5.356;2023-07-22T00:11:05;16.63;;;8.90;;
24617;SDS011;12762;51.730;5.356;2023-07-22T00:13:32;16.97;;;8.77;;
24617;SDS011;12762;51.730;5.356;2023-07-22T00:16:00;14.63;;;8.70;;
24617;SDS011;12762;51.730;5.356;2023-07-22T00:18:27;15.50;;;9.03;;
24617;SDS011;12762;51.730;5.356;2023-07-22T00:20:54;17.10;;;9.40;;
24617;SDS011;12762;51.730;5.356;2023-07-22T00:23:21;15.20;;;10.03;;
24617;SDS011;12762;51.730;5.356;2023-07-22T00:25:48;15.30;;;9.20;;
24617;SDS011;12762;51.730;5.356;2023-07-22T00:28:16;17.90;;;9.67;;
24617;SDS011;12762;51.730;5.356;2023-07-22T00:30:42;16.43;;;9.37;;
24617;SDS011;12762;51.730;5.356;2023-07-22T00:33:10;17.53;;;10.10;;
24617;SDS011;12762;51.730;5.356;2023-07-22T00:35:36;19.40;;;9.10;;
24617;SDS011;12762;51.730;5.356;2023-07-22T00:38:03;19.53;;;10.90;;
24617;SDS011;12762;51.730;5.356;2023-07-22T00:40:30;17.20;;;8.83;;
24617;SDS011;12762;51.730;5.356;2023-07-22T00:42:58;17.00;;;9.30;;
24617;SDS011;12762;51.730;5.356;2023-07-22T00:45:25;21.80;;;10.17;;
24617;SDS011;12762;51.730;5.356;2023-07-22T00:47:52;16.03;;;9.23;;
24617;SDS011;12762;51.730;5.356;2023-07-22T00:50:19;15.60;;;9.40;;
24617;SDS011;12762;51.730;5.356;2023-07-22T00:52:47;17.97;;;10.23;;
24617;SDS011;12762;51.730;5.356;2023-07-22T00:55:17;18.50;;;10.63;;
24617;SDS011;12762;51.730;5.356;2023-07-22T00:57:43;19.77;;;10.93;;
24617;SDS011;12762;51.730;5.356;2023-07-22T01:00:10;18.10;;;9.97;;
24617;SDS011;12762;51.730;5.356;2023-07-22T01:02:38;18.07;;;10.33;;
24617;SDS011;12762;51.730;5.356;2023-07-22T01:05:07;16.93;;;10.13;;
24617;SDS011;12762;51.730;5.356;2023-07-22T01:07:36;18.87;;;10.33;;
24617;SDS011;12762;51.730;5.356;2023-07-22T01:10:05;20.07;;;9.73;;
24617;SDS011;12762;51.730;5.356;2023-07-22T01:12:35;18.67;;;10.83;;
24617;SDS011;12762;51.730;5.356;2023-07-22T01:15:02;18.37;;;9.53;;
24617;SDS011;12762;51.730;5.356;2023-07-22T01:17:34;18.97;;;10.37;;
24617;SDS011;12762;51.730;5.356;2023-07-22T01:20:04;18.67;;;10.23;;
24617;SDS011;12762;51.730;5.356;2023-07-22T01:22:33;20.03;;;9.63;;
24617;SDS011;12762;51.730;5.356;2023-07-22T01:25:00;22.03;;;10.43;;
24617;SDS011;12762;51.730;5.356;2023-07-22T01:27:27;23.17;;;10.37;;
24617;SDS011;12762;51.730;5.356;2023-07-22T01:29:55;21.20;;;11.03;;
24617;SDS011;12762;51.730;5.356;2023-07-22T01:32:22;18.47;;;9.80;;
24617;SDS011;12762;51.730;5.356;2023-07-22T01:34:49;18.47;;;10.20;;
24617;SDS011;12762;51.730;5.356;2023-07-22T01:37:16;19.33;;;10.60;;
24617;SDS011;12762;51.730;5.356;2023-07-22T01:39:43;20.97;;;10.70;;
24617;SDS011;12762;51.730;5.356;2023-07-22T01:42:10;19.70;;;9.93;;
24617;SDS011;12762;51.730;5.356;2023-07-22T01:44:37;20.83;;;10.60;;
24617;SDS011;12762;51.730;5.356;2023-07-22T01:47:06;20.80;;;10.37;;
24617;SDS011;12762;51.730;5.356;2023-07-22T01:49:33;20.03;;;10.53;;
24617;SDS011;12762;51.730;5.356;2023-07-22T01:52:00;20.93;;;10.97;;
24617;SDS011;12762;51.730;5.356;2023-07-22T01:54:27;19.47;;;10.80;;
24617;SDS011;12762;51.730;5.356;2023-07-22T01:56:54;18.13;;;10.20;;
24617;SDS011;12762;51.730;5.356;2023-07-22T01:59:21;18.47;;;10.50;;
24617;SDS011;12762;51.730;5.356;2023-07-22T02:01:48;24.93;;;10.53;;
24617;SDS011;12762;51.730;5.356;2023-07-22T02:04:15;22.40;;;10.93;;
24617;SDS011;12762;51.730;5.356;2023-07-22T02:06:42;25.40;;;11.20;;
24617;SDS011;12762;51.730;5.356;2023-07-22T02:09:08;25.63;;;10.57;;
24617;SDS011;12762;51.730;5.356;2023-07-22T02:11:35;22.57;;;11.03;;
24617;SDS011;12762;51.730;5.356;2023-07-22T02:14:02;21.17;;;10.87;;
24617;SDS011;12762;51.730;5.356;2023-07-22T02:16:34;23.00;;;10.30;;
24617;SDS011;12762;51.730;5.356;2023-07-22T02:19:02;22.50;;;10.53;;
24617;SDS011;12762;51.730;5.356;2023-07-22T02:21:30;19.00;;;10.17;;
24617;SDS011;12762;51.730;5.356;2023-07-22T02:23:56;21.67;;;10.27;;
24617;SDS011;12762;51.730;5.356;2023-07-22T02:26:23;21.70;;;10.40;;
24617;SDS011;12762;51.730;5.356;2023-07-22T02:28:51;21.50;;;11.03;;
24617;SDS011;12762;51.730;5.356;2023-07-22T02:31:17;20.03;;;10.10;;
24617;SDS011;12762;51.730;5.356;2023-07-22T02:33:44;22.07;;;10.50;;
24617;SDS011;12762;51.730;5.356;2023-07-22T02:36:11;23.70;;;10.47;;
24617;SDS011;12762;51.730;5.356;2023-07-22T02:38:38;20.90;;;11.30;;
24617;SDS011;12762;51.730;5.356;2023-07-22T02:41:05;19.37;;;10.73;;
24617;SDS011;12762;51.730;5.356;2023-07-22T02:43:34;23.27;;;10.43;;
24617;SDS011;12762;51.730;5.356;2023-07-22T02:46:02;22.93;;;11.97;;
24617;SDS011;12762;51.730;5.356;2023-07-22T02:48:31;17.40;;;9.50;;
24617;SDS011;12762;51.730;5.356;2023-07-22T02:51:05;20.73;;;10.77;;
24617;SDS011;12762;51.730;5.356;2023-07-22T02:53:35;18.60;;;10.17;;
24617;SDS011;12762;51.730;5.356;2023-07-22T02:56:07;19.57;;;10.83;;
24617;SDS011;12762;51.730;5.356;2023-07-22T02:58:34;27.10;;;11.80;;
24617;SDS011;12762;51.730;5.356;2023-07-22T03:01:05;23.63;;;12.10;;
24617;SDS011;12762;51.730;5.356;2023-07-22T03:03:37;23.40;;;12.03;;
24617;SDS011;12762;51.730;5.356;2023-07-22T03:06:06;17.03;;;9.43;;
24617;SDS011;12762;51.730;5.356;2023-07-22T03:08:35;23.00;;;10.97;;
24617;SDS011;12762;51.730;5.356;2023-07-22T03:11:02;18.20;;;9.73;;
24617;SDS011;12762;51.730;5.356;2023-07-22T03:13:30;22.33;;;11.30;;
24617;SDS011;12762;51.730;5.356;2023-07-22T03:15:57;22.37;;;11.17;;
24617;SDS011;12762;51.730;5.356;2023-07-22T03:18:24;22.77;;;11.43;;
24617;SDS011;12762;51.730;5.356;2023-07-22T03:20:51;24.20;;;10.80;;
24617;SDS011;12762;51.730;5.356;2023-07-22T03:23:18;21.17;;;11.37;;
24617;SDS011;12762;51.730;5.356;2023-07-22T03:25:46;24.13;;;11.80;;
24617;SDS011;12762;51.730;5.356;2023-07-22T03:28:14;23.10;;;12.00;;
24617;SDS011;12762;51.730;5.356;2023-07-22T03:30:41;25.90;;;11.87;;
24617;SDS011;12762;51.730;5.356;2023-07-22T03:33:08;22.77;;;11.67;;
24617;SDS011;12762;51.730;5.356;2023-07-22T03:35:37;22.83;;;11.57;;
24617;SDS011;12762;51.730;5.356;2023-07-22T03:38:07;25.80;;;12.93;;
24617;SDS011;12762;51.730;5.356;2023-07-22T03:40:34;24.30;;;12.27;;
24617;SDS011;12762;51.730;5.356;2023-07-22T03:43:01;24.67;;;12.73;;
24617;SDS011;12762;51.730;5.356;2023-07-22T03:45:28;26.90;;;12.00;;
24617;SDS011;12762;51.730;5.356;2023-07-22T03:47:59;24.90;;;12.60;;
24617;SDS011;12762;51.730;5.356;2023-07-22T03:50:27;26.00;;;12.93;;
24617;SDS011;12762;51.730;5.356;2023-07-22T03:52:54;23.37;;;12.53;;
24617;SDS011;12762;51.730;5.356;2023-07-22T03:55:21;24.77;;;12.83;;
24617;SDS011;12762;51.730;5.356;2023-07-22T03:57:48;28.30;;;12.33;;
24617;SDS011;12762;51.730;5.356;2023-07-22T04:00:15;24.53;;;13.17;;
24617;SDS011;12762;51.730;5.356;2023-07-22T04:02:42;24.30;;;12.93;;
24617;SDS011;12762;51.730;5.356;2023-07-22T04:05:09;24.27;;;12.77;;
24617;SDS011;12762;51.730;5.356;2023-07-22T04:07:36;23.60;;;11.30;;
24617;SDS011;12762;51.730;5.356;2023-07-22T04:10:04;26.27;;;12.80;;
24617;SDS011;12762;51.730;5.356;2023-07-22T04:12:31;23.50;;;12.40;;
24617;SDS011;12762;51.730;5.356;2023-07-22T04:14:58;22.27;;;12.33;;
24617;SDS011;12762;51.730;5.356;2023-07-22T04:17:25;25.37;;;11.90;;
24617;SDS011;12762;51.730;5.356;2023-07-22T04:19:52;24.27;;;11.83;;
24617;SDS011;12762;51.730;5.356;2023-07-22T04:22:20;22.77;;;12.50;;
24617;SDS011;12762;51.730;5.356;2023-07-22T04:24:47;24.27;;;12.47;;
24617;SDS011;12762;51.730;5.356;2023-07-22T04:27:17;21.03;;;12.20;;
24617;SDS011;12762;51.730;5.356;2023-07-22T04:29:44;22.27;;;12.23;;
24617;SDS011;12762;51.730;5.356;2023-07-22T04:32:11;22.27;;;12.40;;
24617;SDS011;12762;51.730;5.356;2023-07-22T04:34:38;26.87;;;12.33;;
24617;SDS011;12762;51.730;5.356;2023-07-22T04:37:05;24.47;;;12.00;;
24617;SDS011;12762;51.730;5.356;2023-07-22T04:39:32;22.07;;;12.03;;
24617;SDS011;12762;51.730;5.356;2023-07-22T04:42:00;24.23;;;12.97;;
24617;SDS011;12762;51.730;5.356;2023-07-22T04:44:27;21.80;;;12.13;;
24617;SDS011;12762;51.730;5.356;2023-07-22T04:46:54;20.37;;;11.63;;
24617;SDS011;12762;51.730;5.356;2023-07-22T04:49:21;21.77;;;12.20;;
24617;SDS011;12762;51.730;5.356;2023-07-22T04:51:48;20.73;;;12.20;;
24617;SDS011;12762;51.730;5.356;2023-07-22T04:54:16;20.23;;;11.20;;
24617;SDS011;12762;51.730;5.356;2023-07-22T04:56:44;23.83;;;12.23;;
24617;SDS011;12762;51.730;5.356;2023-07-22T04:59:11;24.27;;;12.00;;
24617;SDS011;12762;51.730;5.356;2023-07-22T05:01:39;22.50;;;11.80;;
24617;SDS011;12762;51.730;5.356;2023-07-22T05:04:06;20.23;;;11.30;;
24617;SDS011;12762;51.730;5.356;2023-07-22T05:06:33;19.67;;;11.90;;
24617;SDS011;12762;51.730;5.356;2023-07-22T05:09:02;23.33;;;12.17;;
24617;SDS011;12762;51.730;5.356;2023-07-22T05:11:32;20.07;;;11.20;;
24617;SDS011;12762;51.730;5.356;2023-07-22T05:13:58;22.97;;;11.57;;
24617;SDS011;12762;51.730;5.356;2023-07-22T05:16:25;21.57;;;12.00;;
24617;SDS011;12762;51.730;5.356;2023-07-22T05:18:52;20.47;;;11.07;;
24617;SDS011;12762;51.730;5.356;2023-07-22T05:21:19;18.83;;;11.10;;
24617;SDS011;12762;51.730;5.356;2023-07-22T05:23:46;24.00;;;11.73;;
24617;SDS011;12762;51.730;5.356;2023-07-22T05:26:13;22.20;;;11.77;;
24617;SDS011;12762;51.730;5.356;2023-07-22T05:28:40;24.17;;;11.57;;
24617;SDS011;12762;51.730;5.356;2023-07-22T05:31:07;21.83;;;11.93;;
24617;SDS011;12762;51.730;5.356;2023-07-22T05:33:34;20.93;;;12.20;;
24617;SDS011;12762;51.730;5.356;2023-07-22T05:36:01;22.63;;;11.37;;
24617;SDS011;12762;51.730;5.356;2023-07-22T05:38:27;19.63;;;11.10;;
24617;SDS011;12762;51.730;5.356;2023-07-22T05:40:54;25.13;;;11.63;;
24617;SDS011;12762;51.730;5.356;2023-07-22T05:43:24;20.27;;;11.50;;
24617;SDS011;12762;51.730;5.356;2023-07-22T05:45:51;22.60;;;12.00;;
24617;SDS011;12762;51.730;5.356;2023-07-22T05:48:18;22.93;;;11.83;;
24617;SDS011;12762;51.730;5.356;2023-07-22T05:50:45;20.37;;;11.10;;
24617;SDS011;12762;51.730;5.356;2023-07-22T05:53:12;24.67;;;11.33;;
24617;SDS011;12762;51.730;5.356;2023-07-22T05:55:38;19.37;;;11.27;;
24617;SDS011;12762;51.730;5.356;2023-07-22T05:58:14;22.53;;;11.77;;
24617;SDS011;12762;51.730;5.356;2023-07-22T06:00:42;25.73;;;12.20;;
24617;SDS011;12762;51.730;5.356;2023-07-22T06:03:09;22.03;;;10.83;;
24617;SDS011;12762;51.730;5.356;2023-07-22T06:05:36;23.20;;;11.73;;
24617;SDS011;12762;51.730;5.356;2023-07-22T06:08:03;19.77;;;10.60;;
24617;SDS011;12762;51.730;5.356;2023-07-22T06:10:30;28.20;;;11.60;;
24617;SDS011;12762;51.730;5.356;2023-07-22T06:12:57;22.30;;;10.73;;
24617;SDS011;12762;51.730;5.356;2023-07-22T06:15:24;21.67;;;11.47;;
24617;SDS011;12762;51.730;5.356;2023-07-22T06:17:51;21.33;;;11.87;;
24617;SDS011;12762;51.730;5.356;2023-07-22T06:20:18;20.23;;;11.37;;
24617;SDS011;12762;51.730;5.356;2023-07-22T06:22:45;23.63;;;11.57;;
24617;SDS011;12762;51.730;5.356;2023-07-22T06:25:12;23.63;;;12.00;;
24617;SDS011;12762;51.730;5.356;2023-07-22T06:27:39;25.13;;;12.30;;
24617;SDS011;12762;51.730;5.356;2023-07-22T06:30:08;20.23;;;9.93;;
24617;SDS011;12762;51.730;5.356;2023-07-22T06:32:39;20.40;;;11.03;;
24617;SDS011;12762;51.730;5.356;2023-07-22T06:35:06;23.77;;;11.73;;
24617;SDS011;12762;51.730;5.356;2023-07-22T06:37:35;25.40;;;11.83;;
24617;SDS011;12762;51.730;5.356;2023-07-22T06:40:02;23.73;;;11.57;;
24617;SDS011;12762;51.730;5.356;2023-07-22T06:42:30;27.27;;;10.73;;
24617;SDS011;12762;51.730;5.356;2023-07-22T06:44:56;19.43;;;10.43;;
24617;SDS011;12762;51.730;5.356;2023-07-22T06:47:23;22.27;;;11.50;;
24617;SDS011;12762;51.730;5.356;2023-07-22T06:49:50;22.23;;;11.17;;
24617;SDS011;12762;51.730;5.356;2023-07-22T06:52:20;21.90;;;10.73;;
24617;SDS011;12762;51.730;5.356;2023-07-22T06:54:47;20.63;;;11.37;;
24617;SDS011;12762;51.730;5.356;2023-07-22T06:57:14;19.90;;;10.47;;
24617;SDS011;12762;51.730;5.356;2023-07-22T06:59:41;21.23;;;10.57;;
24617;SDS011;12762;51.730;5.356;2023-07-22T07:02:08;20.73;;;10.10;;
24617;SDS011;12762;51.730;5.356;2023-07-22T07:04:35;20.43;;;10.20;;
24617;SDS011;12762;51.730;5.356;2023-07-22T07:07:01;21.10;;;10.60;;
24617;SDS011;12762;51.730;5.356;2023-07-22T07:09:29;17.40;;;9.93;;
24617;SDS011;12762;51.730;5.356;2023-07-22T07:11:55;17.60;;;10.07;;
24617;SDS011;12762;51.730;5.356;2023-07-22T07:14:25;20.37;;;10.53;;
24617;SDS011;12762;51.730;5.356;2023-07-22T07:16:52;17.97;;;9.43;;
24617;SDS011;12762;51.730;5.356;2023-07-22T07:19:22;19.37;;;10.77;;
24617;SDS011;12762;51.730;5.356;2023-07-22T07:21:49;21.10;;;10.20;;
24617;SDS011;12762;51.730;5.356;2023-07-22T07:24:16;21.13;;;10.30;;
24617;SDS011;12762;51.730;5.356;2023-07-22T07:26:43;18.47;;;10.17;;
24617;SDS011;12762;51.730;5.356;2023-07-22T07:29:10;19.63;;;10.17;;
24617;SDS011;12762;51.730;5.356;2023-07-22T07:31:39;15.93;;;9.37;;
24617;SDS011;12762;51.730;5.356;2023-07-22T07:34:05;18.33;;;9.17;;
24617;SDS011;12762;51.730;5.356;2023-07-22T07:36:33;20.13;;;9.30;;
24617;SDS011;12762;51.730;5.356;2023-07-22T07:39:00;18.53;;;9.47;;
24617;SDS011;12762;51.730;5.356;2023-07-22T07:41:27;15.63;;;8.87;;
24617;SDS011;12762;51.730;5.356;2023-07-22T07:43:54;15.43;;;8.70;;
24617;SDS011;12762;51.730;5.356;2023-07-22T07:46:27;16.07;;;9.37;;
24617;SDS011;12762;51.730;5.356;2023-07-22T07:48:55;18.30;;;9.20;;
24617;SDS011;12762;51.730;5.356;2023-07-22T07:51:27;20.57;;;9.13;;
24617;SDS011;12762;51.730;5.356;2023-07-22T07:53:55;16.90;;;8.73;;
24617;SDS011;12762;51.730;5.356;2023-07-22T07:56:24;15.97;;;9.40;;
24617;SDS011;12762;51.730;5.356;2023-07-22T07:58:52;19.83;;;8.83;;
24617;SDS011;12762;51.730;5.356;2023-07-22T08:01:20;15.77;;;8.07;;
24617;SDS011;12762;51.730;5.356;2023-07-22T08:03:50;14.10;;;8.40;;
24617;SDS011;12762;51.730;5.356;2023-07-22T08:06:17;15.47;;;8.83;;
24617;SDS011;12762;51.730;5.356;2023-07-22T08:08:45;17.87;;;7.80;;
24617;SDS011;12762;51.730;5.356;2023-07-22T08:11:13;13.87;;;7.77;;
24617;SDS011;12762;51.730;5.356;2023-07-22T08:13:41;15.40;;;8.83;;
24617;SDS011;12762;51.730;5.356;2023-07-22T08:16:10;12.97;;;7.43;;
24617;SDS011;12762;51.730;5.356;2023-07-22T08:18:38;15.50;;;8.40;;
24617;SDS011;12762;51.730;5.356;2023-07-22T08:21:05;17.03;;;8.73;;
24617;SDS011;12762;51.730;5.356;2023-07-22T08:23:33;16.77;;;8.30;;
24617;SDS011;12762;51.730;5.356;2023-07-22T08:26:00;17.07;;;8.27;;
24617;SDS011;12762;51.730;5.356;2023-07-22T08:28:29;16.73;;;8.00;;
24617;SDS011;12762;51.730;5.356;2023-07-22T08:30:57;13.07;;;7.60;;
24617;SDS011;12762;51.730;5.356;2023-07-22T08:33:27;16.50;;;7.43;;
24617;SDS011;12762;51.730;5.356;2023-07-22T08:36:06;14.47;;;7.73;;
24617;SDS011;12762;51.730;5.356;2023-07-22T08:38:33;15.03;;;7.40;;
24617;SDS011;12762;51.730;5.356;2023-07-22T08:41:00;14.87;;;7.47;;
24617;SDS011;12762;51.730;5.356;2023-07-22T08:43:27;12.40;;;7.40;;
24617;SDS011;12762;51.730;5.356;2023-07-22T08:45:55;14.80;;;6.83;;
24617;SDS011;12762;51.730;5.356;2023-07-22T08:48:27;12.97;;;6.40;;
24617;SDS011;12762;51.730;5.356;2023-07-22T08:53:43;14.00;;;7.77;;
24617;SDS011;12762;51.730;5.356;2023-07-22T08:56:25;14.87;;;7.60;;
24617;SDS011;12762;51.730;5.356;2023-07-22T08:58:53;13.17;;;7.23;;
24617;SDS011;12762;51.730;5.356;2023-07-22T09:01:22;12.13;;;6.30;;
24617;SDS011;12762;51.730;5.356;2023-07-22T09:03:54;13.33;;;6.20;;
24617;SDS011;12762;51.730;5.356;2023-07-22T09:06:24;10.40;;;6.07;;
24617;SDS011;12762;51.730;5.356;2023-07-22T09:08:52;13.13;;;6.27;;
24617;SDS011;12762;51.730;5.356;2023-07-22T09:11:19;10.17;;;5.97;;
24617;SDS011;12762;51.730;5.356;2023-07-22T09:13:47;12.80;;;5.80;;
24617;SDS011;12762;51.730;5.356;2023-07-22T09:16:17;10.13;;;5.63;;
24617;SDS011;12762;51.730;5.356;2023-07-22T09:18:45;8.90;;;4.90;;
24617;SDS011;12762;51.730;5.356;2023-07-22T09:21:14;11.20;;;5.73;;
24617;SDS011;12762;51.730;5.356;2023-07-22T09:23:44;11.63;;;5.43;;
24617;SDS011;12762;51.730;5.356;2023-07-22T09:26:12;12.27;;;5.63;;
24617;SDS011;12762;51.730;5.356;2023-07-22T09:28:53;10.40;;;4.67;;
24617;SDS011;12762;51.730;5.356;2023-07-22T09:31:22;9.60;;;5.23;;
24617;SDS011;12762;51.730;5.356;2023-07-22T09:33:50;9.60;;;5.47;;
24617;SDS011;12762;51.730;5.356;2023-07-22T09:36:17;12.03;;;5.53;;
24617;SDS011;12762;51.730;5.356;2023-07-22T09:38:44;9.07;;;4.73;;
24617;SDS011;12762;51.730;5.356;2023-07-22T09:41:11;9.93;;;4.40;;
24617;SDS011;12762;51.730;5.356;2023-07-22T09:43:39;11.07;;;5.10;;
24617;SDS011;12762;51.730;5.356;2023-07-22T09:46:09;9.40;;;4.20;;
24617;SDS011;12762;51.730;5.356;2023-07-22T09:48:40;9.60;;;4.37;;
24617;SDS011;12762;51.730;5.356;2023-07-22T09:51:12;9.37;;;4.47;;
24617;SDS011;12762;51.730;5.356;2023-07-22T09:53:47;8.10;;;4.20;;
24617;SDS011;12762;51.730;5.356;2023-07-22T09:56:25;11.87;;;4.20;;
24617;SDS011;12762;51.730;5.356;2023-07-22T09:58:52;7.80;;;3.43;;
24617;SDS011;12762;51.730;5.356;2023-07-22T10:01:20;6.07;;;3.20;;
24617;SDS011;12762;51.730;5.356;2023-07-22T10:03:53;5.97;;;3.20;;
24617;SDS011;12762;51.730;5.356;2023-07-22T10:06:26;6.83;;;3.53;;
24617;SDS011;12762;51.730;5.356;2023-07-22T10:09:04;6.20;;;2.70;;
24617;SDS011;12762;51.730;5.356;2023-07-22T10:11:37;6.30;;;3.60;;
24617;SDS011;12762;51.730;5.356;2023-07-22T10:14:05;7.53;;;3.70;;
24617;SDS011;12762;51.730;5.356;2023-07-22T10:16:33;6.57;;;3.20;;
24617;SDS011;12762;51.730;5.356;2023-07-22T10:19:04;6.80;;;3.10;;
24617;SDS011;12762;51.730;5.356;2023-07-22T10:21:32;7.07;;;3.73;;
24617;SDS011;12762;51.730;5.356;2023-07-22T10:24:01;6.27;;;3.00;;
24617;SDS011;12762;51.730;5.356;2023-07-22T10:26:29;6.70;;;3.17;;
24617;SDS011;12762;51.730;5.356;2023-07-22T10:29:13;5.60;;;2.97;;
24617;SDS011;12762;51.730;5.356;2023-07-22T10:31:40;8.03;;;3.20;;
24617;SDS011;12762;51.730;5.356;2023-07-22T10:34:09;6.73;;;2.60;;
24617;SDS011;12762;51.730;5.356;2023-07-22T10:36:36;6.90;;;3.07;;
24617;SDS011;12762;51.730;5.356;2023-07-22T10:39:03;9.07;;;3.17;;
24617;SDS011;12762;51.730;5.356;2023-07-22T10:41:32;7.57;;;3.40;;
24617;SDS011;12762;51.730;5.356;2023-07-22T10:44:04;5.90;;;3.47;;
24617;SDS011;12762;51.730;5.356;2023-07-22T10:46:36;6.57;;;3.60;;
24617;SDS011;12762;51.730;5.356;2023-07-22T10:49:10;6.87;;;2.90;;
24617;SDS011;12762;51.730;5.356;2023-07-22T10:51:38;7.43;;;2.63;;
24617;SDS011;12762;51.730;5.356;2023-07-22T10:54:51;5.03;;;2.60;;
24617;SDS011;12762;51.730;5.356;2023-07-22T10:57:03;8.20;;;2.87;;
24617;SDS011;12762;51.730;5.356;2023-07-22T10:59:49;6.20;;;2.73;;
24617;SDS011;12762;51.730;5.356;2023-07-22T11:02:26;8.37;;;2.97;;
24617;SDS011;12762;51.730;5.356;2023-07-22T11:04:58;7.73;;;2.50;;
24617;SDS011;12762;51.730;5.356;2023-07-22T11:07:59;5.20;;;2.17;;
24617;SDS011;12762;51.730;5.356;2023-07-22T11:10:29;5.97;;;2.20;;
24617;SDS011;12762;51.730;5.356;2023-07-22T11:12:56;3.93;;;1.93;;
24617;SDS011;12762;51.730;5.356;2023-07-22T11:15:22;5.20;;;2.20;;
24617;SDS011;12762;51.730;5.356;2023-07-22T11:17:58;5.20;;;1.80;;
24617;SDS011;12762;51.730;5.356;2023-07-22T11:20:25;4.17;;;2.00;;
24617;SDS011;12762;51.730;5.356;2023-07-22T11:22:51;5.13;;;1.87;;
24617;SDS011;12762;51.730;5.356;2023-07-22T11:25:18;3.80;;;1.90;;
24617;SDS011;12762;51.730;5.356;2023-07-22T11:27:45;4.53;;;2.10;;
24617;SDS011;12762;51.730;5.356;2023-07-22T11:30:12;5.23;;;2.13;;
24617;SDS011;12762;51.730;5.356;2023-07-22T11:32:42;6.27;;;2.17;;
24617;SDS011;12762;51.730;5.356;2023-07-22T11:35:09;4.30;;;1.97;;
24617;SDS011;12762;51.730;5.356;2023-07-22T11:37:36;3.50;;;1.70;;
24617;SDS011;12762;51.730;5.356;2023-07-22T11:40:03;3.27;;;1.67;;
24617;SDS011;12762;51.730;5.356;2023-07-22T11:42:32;5.97;;;1.90;;
24617;SDS011;12762;51.730;5.356;2023-07-22T11:45:00;3.27;;;2.13;;
24617;SDS011;12762;51.730;5.356;2023-07-22T11:47:33;4.07;;;1.77;;
24617;SDS011;12762;51.730;5.356;2023-07-22T11:50:00;3.43;;;1.80;;
24617;SDS011;12762;51.730;5.356;2023-07-22T11:52:27;2.93;;;2.00;;
24617;SDS011;12762;51.730;5.356;2023-07-22T11:54:54;3.50;;;1.83;;
24617;SDS011;12762;51.730;5.356;2023-07-22T11:57:28;5.30;;;2.03;;
24617;SDS011;12762;51.730;5.356;2023-07-22T11:59:57;3.83;;;1.73;;
24617;SDS011;12762;51.730;5.356;2023-07-22T12:02:26;3.07;;;1.70;;
24617;SDS011;12762;51.730;5.356;2023-07-22T12:05:04;6.00;;;2.03;;
24617;SDS011;12762;51.730;5.356;2023-07-22T12:07:33;4.93;;;1.70;;
24617;SDS011;12762;51.730;5.356;2023-07-22T12:10:02;5.30;;;1.90;;
24617;SDS011;12762;51.730;5.356;2023-07-22T12:12:35;4.03;;;2.10;;
24617;SDS011;12762;51.730;5.356;2023-07-22T12:15:10;3.90;;;1.90;;
24617;SDS011;12762;51.730;5.356;2023-07-22T12:17:48;4.27;;;1.80;;
24617;SDS011;12762;51.730;5.356;2023-07-22T12:20:18;3.73;;;1.70;;
24617;SDS011;12762;51.730;5.356;2023-07-22T12:22:49;4.60;;;1.70;;
24617;SDS011;12762;51.730;5.356;2023-07-22T12:25:16;4.70;;;1.80;;
24617;SDS011;12762;51.730;5.356;2023-07-22T12:27:43;3.50;;;1.90;;
24617;SDS011;12762;51.730;5.356;2023-07-22T12:30:10;3.67;;;1.93;;
24617;SDS011;12762;51.730;5.356;2023-07-22T12:32:38;3.70;;;2.10;;
24617;SDS011;12762;51.730;5.356;2023-07-22T12:35:05;5.47;;;2.17;;
24617;SDS011;12762;51.730;5.356;2023-07-22T12:37:33;6.40;;;2.17;;
24617;SDS011;12762;51.730;5.356;2023-07-22T12:40:00;4.80;;;2.00;;
24617;SDS011;12762;51.730;5.356;2023-07-22T12:42:27;4.93;;;2.17;;
24617;SDS011;12762;51.730;5.356;2023-07-22T12:44:54;4.23;;;1.80;;
24617;SDS011;12762;51.730;5.356;2023-07-22T12:47:21;3.10;;;1.90;;
24617;SDS011;12762;51.730;5.356;2023-07-22T12:49:48;6.10;;;2.30;;
24617;SDS011;12762;51.730;5.356;2023-07-22T12:52:14;3.27;;;1.90;;
24617;SDS011;12762;51.730;5.356;2023-07-22T12:54:41;5.20;;;1.90;;
24617;SDS011;12762;51.730;5.356;2023-07-22T12:57:08;4.33;;;1.90;;
24617;SDS011;12762;51.730;5.356;2023-07-22T12:59:34;2.33;;;1.60;;
24617;SDS011;12762;51.730;5.356;2023-07-22T13:02:04;4.47;;;2.00;;
24617;SDS011;12762;51.730;5.356;2023-07-22T13:04:31;5.37;;;1.87;;
24617;SDS011;12762;51.730;5.356;2023-07-22T13:06:58;3.47;;;2.00;;
24617;SDS011;12762;51.730;5.356;2023-07-22T13:09:25;4.87;;;1.70;;
24617;SDS011;12762;51.730;5.356;2023-07-22T13:11:52;3.17;;;2.20;;
24617;SDS011;12762;51.730;5.356;2023-07-22T13:14:19;5.40;;;2.10;;
24617;SDS011;12762;51.730;5.356;2023-07-22T13:16:47;4.73;;;1.90;;
24617;SDS011;12762;51.730;5.356;2023-07-22T13:19:14;4.07;;;2.10;;
24617;SDS011;12762;51.730;5.356;2023-07-22T13:21:40;4.13;;;1.70;;
24617;SDS011;12762;51.730;5.356;2023-07-22T13:24:07;3.80;;;1.90;;
24617;SDS011;12762;51.730;5.356;2023-07-22T13:26:34;4.47;;;2.20;;
24617;SDS011;12762;51.730;5.356;2023-07-22T13:29:05;4.77;;;2.00;;
24617;SDS011;12762;51.730;5.356;2023-07-22T13:31:32;4.80;;;1.70;;
24617;SDS011;12762;51.730;5.356;2023-07-22T13:33:59;3.67;;;1.90;;
24617;SDS011;12762;51.730;5.356;2023-07-22T13:36:26;3.80;;;2.00;;
24617;SDS011;12762;51.730;5.356;2023-07-22T13:38:59;6.43;;;1.93;;
24617;SDS011;12762;51.730;5.356;2023-07-22T13:41:25;5.20;;;2.00;;
24617;SDS011;12762;51.730;5.356;2023-07-22T13:43:52;5.17;;;2.30;;
24617;SDS011;12762;51.730;5.356;2023-07-22T13:46:21;5.70;;;2.93;;
24617;SDS011;12762;51.730;5.356;2023-07-22T13:48:47;5.63;;;2.23;;
24617;SDS011;12762;51.730;5.356;2023-07-22T13:51:14;5.83;;;2.23;;
24617;SDS011;12762;51.730;5.356;2023-07-22T13:53:41;6.03;;;2.20;;
24617;SDS011;12762;51.730;5.356;2023-07-22T13:56:08;5.13;;;2.00;;
24617;SDS011;12762;51.730;5.356;2023-07-22T13:58:35;4.80;;;1.77;;
24617;SDS011;12762;51.730;5.356;2023-07-22T14:01:01;5.60;;;1.93;;
24617;SDS011;12762;51.730;5.356;2023-07-22T14:03:29;6.23;;;2.23;;
24617;SDS011;12762;51.730;5.356;2023-07-22T14:05:56;5.90;;;2.07;;
24617;SDS011;12762;51.730;5.356;2023-07-22T14:08:23;4.97;;;2.10;;
24617;SDS011;12762;51.730;5.356;2023-07-22T14:10:54;5.20;;;2.10;;
24617;SDS011;12762;51.730;5.356;2023-07-22T14:13:21;3.83;;;1.80;;
24617;SDS011;12762;51.730;5.356;2023-07-22T14:15:47;7.43;;;2.23;;
24617;SDS011;12762;51.730;5.356;2023-07-22T14:18:17;6.03;;;2.47;;
24617;SDS011;12762;51.730;5.356;2023-07-22T14:20:45;11.00;;;2.63;;
24617;SDS011;12762;51.730;5.356;2023-07-22T14:23:14;4.23;;;2.10;;
24617;SDS011;12762;51.730;5.356;2023-07-22T14:25:41;5.97;;;2.13;;
24617;SDS011;12762;51.730;5.356;2023-07-22T14:28:08;4.57;;;1.97;;
24617;SDS011;12762;51.730;5.356;2023-07-22T14:30:35;5.23;;;1.87;;
24617;SDS011;12762;51.730;5.356;2023-07-22T14:33:02;4.50;;;2.10;;
24617;SDS011;12762;51.730;5.356;2023-07-22T14:35:29;3.60;;;1.73;;
24617;SDS011;12762;51.730;5.356;2023-07-22T14:37:55;5.13;;;2.70;;
24617;SDS011;12762;51.730;5.356;2023-07-22T14:40:25;6.30;;;2.33;;
24617;SDS011;12762;51.730;5.356;2023-07-22T14:42:52;4.97;;;2.33;;